Time;durP1;ratioP1;P1;durP2;ratioP2;P2;SDS_P1;SDS_P2;PMS_P1;PMS_P2;Temp;Humidity;BMP_temperature;BMP_pressure;BME280_temperature;BME280_humidity;BME280_pressure;Samples;Min_cycle;Max_cycle;Signal;HPM_P1;HPM_P2
2022/01/18 00:01:15;;;;;;;33.40;7.03;;;;;;;;;;5031212;28;20665;-71
2022/01/18 00:03:40;;;;;;;24.33;6.00;;;;;;;;;;5031277;28;20213;-72
2022/01/18 00:06:05;;;;;;;27.20;6.43;;;;;;;;;;5029988;28;20626;-71
2022/01/18 00:08:30;;;;;;;28.13;6.67;;;;;;;;;;5030666;28;20216;-71
2022/01/18 00:10:56;;;;;;;24.60;6.27;;;;;;;;;;5022613;28;20672;-71
2022/01/18 00:13:37;;;;;;;41.73;7.03;;;;;;;;;;5027808;28;20178;-71
2022/01/18 00:18:29;;;;;;;36.03;8.47;;;;;;;;;;5031259;28;20190;-72
2022/01/18 00:23:26;;;;;;;34.40;7.17;;;;;;;;;;5029971;28;20205;-71
2022/01/18 00:25:54;;;;;;;29.10;7.40;;;;;;;;;;5031961;28;20666;-71
2022/01/18 00:28:21;;;;;;;26.67;7.07;;;;;;;;;;5013327;28;20174;-71
2022/01/18 00:33:23;;;;;;;24.83;5.87;;;;;;;;;;5033370;28;20221;-71
2022/01/18 00:35:57;;;;;;;30.73;6.47;;;;;;;;;;5031030;28;20182;-71
2022/01/18 00:38:32;;;;;;;28.43;6.93;;;;;;;;;;5030470;28;20596;-71
2022/01/18 00:40:58;;;;;;;44.57;7.97;;;;;;;;;;5025422;28;20201;-71
2022/01/18 00:43:23;;;;;;;44.50;7.57;;;;;;;;;;5028505;28;20209;-71
2022/01/18 00:45:48;;;;;;;37.57;6.93;;;;;;;;;;5025511;28;20186;-70
2022/01/18 00:48:14;;;;;;;33.47;6.87;;;;;;;;;;5005201;28;20265;-71
2022/01/18 00:50:39;;;;;;;26.43;6.77;;;;;;;;;;5029785;28;20221;-71
2022/01/18 00:53:09;;;;;;;25.27;6.90;;;;;;;;;;5031030;28;20178;-71
2022/01/18 00:55:46;;;;;;;27.30;6.47;;;;;;;;;;5025622;28;20170;-71
2022/01/18 00:58:11;;;;;;;34.70;7.93;;;;;;;;;;5014033;28;20170;-71
2022/01/18 01:00:37;;;;;;;24.83;6.60;;;;;;;;;;5032259;28;20217;-71
2022/01/18 01:03:02;;;;;;;53.83;8.63;;;;;;;;;;5031686;28;20206;-71
2022/01/18 01:05:27;;;;;;;32.77;6.87;;;;;;;;;;5030915;28;20180;-71
2022/01/18 01:07:52;;;;;;;24.43;6.37;;;;;;;;;;5009066;28;20269;-71
2022/01/18 01:10:17;;;;;;;37.70;7.50;;;;;;;;;;5028888;28;20677;-71
2022/01/18 01:12:43;;;;;;;33.77;6.20;;;;;;;;;;5028764;28;20232;-71
2022/01/18 01:15:12;;;;;;;23.83;5.93;;;;;;;;;;5030036;28;20545;-72
2022/01/18 01:17:48;;;;;;;11.13;4.03;;;;;;;;;;5029772;28;20185;-71
2022/01/18 01:36:58;;;;;;;22.83;4.87;;;;;;;;;;5014561;28;20185;-69
2022/01/18 01:44:55;;;;;;;10.60;3.57;;;;;;;;;;5028384;28;20237;-70
2022/01/18 01:47:22;;;;;;;7.73;3.97;;;;;;;;;;5004303;28;20651;-70
2022/01/18 01:49:50;;;;;;;10.40;4.37;;;;;;;;;;5024457;28;20260;-70
2022/01/18 01:52:15;;;;;;;12.70;4.30;;;;;;;;;;5026092;28;20182;-70
2022/01/18 01:54:41;;;;;;;11.17;4.43;;;;;;;;;;5031183;28;20525;-70
2022/01/18 01:57:06;;;;;;;8.37;4.17;;;;;;;;;;5031188;28;20170;-70
2022/01/18 01:59:32;;;;;;;19.00;4.67;;;;;;;;;;5027352;28;20697;-70
2022/01/18 02:01:57;;;;;;;25.47;5.33;;;;;;;;;;5026595;28;20518;-70
2022/01/18 02:04:22;;;;;;;20.37;4.87;;;;;;;;;;5030765;28;20202;-70
2022/01/18 02:06:47;;;;;;;11.63;4.57;;;;;;;;;;5031118;28;20257;-70
2022/01/18 02:09:13;;;;;;;17.37;4.63;;;;;;;;;;5031228;28;20227;-70
2022/01/18 02:11:38;;;;;;;9.33;4.23;;;;;;;;;;5030831;28;20190;-70
2022/01/18 02:14:05;;;;;;;17.13;4.57;;;;;;;;;;5030742;28;20182;-70
2022/01/18 02:22:02;;;;;;;8.27;3.87;;;;;;;;;;5028279;28;20777;-70
2022/01/18 02:24:27;;;;;;;13.87;4.47;;;;;;;;;;5030254;28;20194;-70
2022/01/18 02:26:52;;;;;;;7.73;3.90;;;;;;;;;;5030981;28;20236;-70
2022/01/18 02:29:18;;;;;;;8.23;3.80;;;;;;;;;;5030255;28;20225;-70
2022/01/18 02:31:43;;;;;;;13.17;4.47;;;;;;;;;;5024630;28;20202;-70
2022/01/18 02:34:16;;;;;;;7.30;4.20;;;;;;;;;;5029006;28;20659;-70
2022/01/18 02:36:42;;;;;;;36.47;6.73;;;;;;;;;;5029618;28;20213;-70
2022/01/18 02:39:07;;;;;;;12.20;4.40;;;;;;;;;;5028577;28;20214;-70
2022/01/18 02:41:33;;;;;;;8.50;4.40;;;;;;;;;;5028400;28;20671;-70
2022/01/18 02:44:09;;;;;;;18.23;4.90;;;;;;;;;;5031313;28;20194;-70
2022/01/18 02:46:34;;;;;;;11.63;4.20;;;;;;;;;;5013564;28;20182;-70
2022/01/18 02:49:01;;;;;;;13.37;3.90;;;;;;;;;;5033518;28;20674;-70
2022/01/18 02:51:27;;;;;;;27.77;4.80;;;;;;;;;;5032596;28;20860;-70
2022/01/18 02:53:55;;;;;;;10.90;4.27;;;;;;;;;;5030146;28;20193;-71
2022/01/18 02:56:20;;;;;;;35.33;4.70;;;;;;;;;;5029050;28;20182;-70
2022/01/18 02:58:46;;;;;;;42.20;6.00;;;;;;;;;;5031639;28;20545;-70
2022/01/18 03:03:55;;;;;;;19.53;4.90;;;;;;;;;;5032842;28;20256;-70
2022/01/18 03:06:20;;;;;;;10.87;4.30;;;;;;;;;;5034695;28;20652;-70
2022/01/18 03:08:45;;;;;;;37.73;5.30;;;;;;;;;;5033099;28;20197;-70
2022/01/18 03:11:10;;;;;;;29.23;4.83;;;;;;;;;;5033852;28;20248;-70
2022/01/18 03:13:36;;;;;;;33.27;5.00;;;;;;;;;;5030915;28;20174;-70
2022/01/18 03:16:01;;;;;;;25.17;4.40;;;;;;;;;;5032473;28;20174;-70
2022/01/18 03:18:26;;;;;;;28.30;5.17;;;;;;;;;;5032407;28;20579;-70
2022/01/18 03:20:51;;;;;;;37.77;5.87;;;;;;;;;;5031827;28;20210;-70
2022/01/18 03:23:19;;;;;;;40.80;5.30;;;;;;;;;;5031765;28;20257;-70
2022/01/18 03:26:00;;;;;;;86.07;7.47;;;;;;;;;;5007790;28;20232;-70
2022/01/18 03:28:26;;;;;;;8.57;3.20;;;;;;;;;;5031079;28;20177;-70
2022/01/18 03:30:58;;;;;;;24.90;4.27;;;;;;;;;;5033112;28;20580;-70
2022/01/18 03:33:25;;;;;;;31.27;4.93;;;;;;;;;;5031205;28;20706;-70
2022/01/18 03:35:51;;;;;;;38.50;8.17;;;;;;;;;;5034515;28;20182;-70
2022/01/18 03:38:17;;;;;;;14.87;3.83;;;;;;;;;;5031750;28;20190;-70
2022/01/18 03:40:42;;;;;;;22.10;4.30;;;;;;;;;;5031282;28;20284;-70
2022/01/18 03:43:11;;;;;;;3.80;3.20;;;;;;;;;;5026667;28;20230;-70
2022/01/18 03:45:41;;;;;;;3.33;2.87;;;;;;;;;;5032200;28;20175;-70
2022/01/18 03:48:10;;;;;;;18.30;4.57;;;;;;;;;;5014848;28;20182;-70
2022/01/18 03:50:35;;;;;;;12.87;3.80;;;;;;;;;;5014805;28;20217;-70
2022/01/18 03:53:00;;;;;;;3.87;3.47;;;;;;;;;;5030738;28;20170;-70
2022/01/18 03:55:25;;;;;;;4.53;3.23;;;;;;;;;;5030535;28;20178;-70
2022/01/18 03:57:51;;;;;;;13.63;4.60;;;;;;;;;;5032586;28;20243;-70
2022/01/18 04:00:18;;;;;;;5.60;3.93;;;;;;;;;;5030717;28;20198;-70
2022/01/18 04:02:43;;;;;;;5.47;3.63;;;;;;;;;;5027440;28;20174;-70
2022/01/18 04:05:09;;;;;;;6.27;3.43;;;;;;;;;;5029294;28;20199;-70
2022/01/18 04:07:34;;;;;;;4.00;3.57;;;;;;;;;;5030987;28;20180;-70
2022/01/18 04:09:59;;;;;;;11.80;4.30;;;;;;;;;;5029887;28;20220;-70
2022/01/18 04:12:24;;;;;;;13.63;4.30;;;;;;;;;;5031846;28;20721;-70
2022/01/18 04:14:50;;;;;;;14.90;4.03;;;;;;;;;;5031601;28;20178;-70
2022/01/18 04:28:13;;;;;;;4.43;3.57;;;;;;;;;;5030796;28;20188;-70
2022/01/18 04:30:39;;;;;;;3.70;3.33;;;;;;;;;;5031154;28;20260;-70
2022/01/18 04:33:04;;;;;;;13.83;5.37;;;;;;;;;;5032039;28;20174;-71
2022/01/18 04:35:29;;;;;;;4.90;3.73;;;;;;;;;;5029940;28;20178;-71
2022/01/18 04:37:54;;;;;;;7.80;4.23;;;;;;;;;;5032642;28;20666;-71
2022/01/18 04:40:26;;;;;;;8.80;4.87;;;;;;;;;;5033702;28;20683;-71
2022/01/18 04:50:47;;;;;;;8.30;4.47;;;;;;;;;;5028075;28;20264;-71
2022/01/18 04:53:13;;;;;;;12.23;4.87;;;;;;;;;;5033102;28;20555;-71
2022/01/18 04:55:38;;;;;;;13.13;5.23;;;;;;;;;;5033748;28;20193;-72
2022/01/18 04:58:03;;;;;;;12.50;6.50;;;;;;;;;;5032576;28;20178;-72
2022/01/18 05:00:28;;;;;;;11.10;5.10;;;;;;;;;;5032462;28;20281;-71
2022/01/18 05:02:54;;;;;;;6.97;5.00;;;;;;;;;;5028898;28;20186;-71
2022/01/18 05:05:37;;;;;;;14.40;5.37;;;;;;;;;;5032914;28;20174;-71
2022/01/18 05:08:05;;;;;;;9.57;4.93;;;;;;;;;;5032925;28;20178;-71
2022/01/18 05:10:31;;;;;;;10.40;5.23;;;;;;;;;;5014219;28;20709;-71
2022/01/18 05:12:57;;;;;;;7.10;5.50;;;;;;;;;;5031698;28;20218;-71
2022/01/18 05:23:14;;;;;;;11.13;5.60;;;;;;;;;;5028920;28;20213;-71
2022/01/18 05:25:39;;;;;;;8.23;4.90;;;;;;;;;;5030189;28;20174;-71
2022/01/18 05:28:06;;;;;;;12.83;6.27;;;;;;;;;;5032140;28;20655;-71
2022/01/18 05:30:31;;;;;;;7.27;5.13;;;;;;;;;;5031007;28;20190;-71
2022/01/18 05:32:57;;;;;;;8.67;5.73;;;;;;;;;;5033274;28;20178;-72
2022/01/18 05:35:23;;;;;;;16.30;5.97;;;;;;;;;;5029310;28;20179;-71
2022/01/18 05:37:48;;;;;;;19.77;6.90;;;;;;;;;;5032567;28;20205;-71
2022/01/18 05:40:14;;;;;;;19.90;7.40;;;;;;;;;;5031113;28;20198;-71
2022/01/18 05:42:39;;;;;;;60.83;9.40;;;;;;;;;;5032428;28;20208;-71
2022/01/18 05:45:06;;;;;;;62.80;9.63;;;;;;;;;;5031110;28;20202;-71
2022/01/18 05:47:32;;;;;;;54.87;9.53;;;;;;;;;;5024594;28;20679;-71
2022/01/18 05:49:57;;;;;;;42.27;9.10;;;;;;;;;;5032943;28;20178;-71
2022/01/18 05:52:22;;;;;;;48.40;8.97;;;;;;;;;;5032121;28;20565;-71
2022/01/18 05:54:47;;;;;;;36.17;7.93;;;;;;;;;;5031685;28;20182;-71
2022/01/18 05:57:13;;;;;;;66.50;10.00;;;;;;;;;;5031845;28;20191;-70
2022/01/18 05:59:44;;;;;;;41.27;9.50;;;;;;;;;;5032258;28;20231;-71
2022/01/18 06:02:17;;;;;;;73.93;11.03;;;;;;;;;;5031073;28;20228;-71
2022/01/18 06:07:27;;;;;;;47.80;10.30;;;;;;;;;;5030362;28;20237;-71
2022/01/18 06:09:53;;;;;;;11.67;8.10;;;;;;;;;;5028959;28;20194;-71
2022/01/18 06:12:19;;;;;;;46.20;9.70;;;;;;;;;;5030243;28;20182;-71
2022/01/18 06:14:45;;;;;;;52.23;13.77;;;;;;;;;;5028573;28;20190;-71
2022/01/18 06:17:10;;;;;;;52.23;11.63;;;;;;;;;;5028193;28;20185;-71
2022/01/18 06:19:35;;;;;;;30.67;9.77;;;;;;;;;;5030299;28;20186;-71
2022/01/18 06:22:00;;;;;;;58.63;11.87;;;;;;;;;;5029192;28;20292;-71
2022/01/18 06:24:25;;;;;;;36.77;10.63;;;;;;;;;;5030982;28;20214;-71
2022/01/18 06:26:50;;;;;;;47.73;11.50;;;;;;;;;;5023747;28;20281;-71
2022/01/18 06:29:16;;;;;;;16.40;8.73;;;;;;;;;;5031079;28;20175;-71
2022/01/18 06:31:41;;;;;;;13.40;8.20;;;;;;;;;;5032095;28;20190;-71
2022/01/18 06:34:06;;;;;;;14.93;8.07;;;;;;;;;;5032034;28;20182;-71
2022/01/18 06:36:31;;;;;;;22.47;9.00;;;;;;;;;;5031121;28;20182;-71
2022/01/18 06:38:57;;;;;;;49.73;8.50;;;;;;;;;;5014586;28;20182;-71
2022/01/18 06:41:22;;;;;;;29.53;8.40;;;;;;;;;;5030544;28;20205;-71
2022/01/18 06:43:47;;;;;;;14.87;6.97;;;;;;;;;;5028884;28;20896;-71
2022/01/18 06:46:12;;;;;;;10.23;6.60;;;;;;;;;;5031175;28;20262;-71
2022/01/18 06:48:38;;;;;;;20.83;8.53;;;;;;;;;;5031759;28;20213;-71
2022/01/18 06:51:03;;;;;;;23.27;9.03;;;;;;;;;;5032683;28;20229;-71
2022/01/18 06:53:31;;;;;;;19.93;7.90;;;;;;;;;;5030923;28;20190;-70
2022/01/18 06:55:57;;;;;;;31.30;9.67;;;;;;;;;;5031117;28;20248;-70
2022/01/18 06:58:22;;;;;;;19.47;8.07;;;;;;;;;;5028430;28;20277;-71
2022/01/18 07:00:47;;;;;;;21.10;8.00;;;;;;;;;;5027470;28;20205;-70
2022/01/18 07:03:13;;;;;;;10.87;6.77;;;;;;;;;;5029704;28;20281;-70
2022/01/18 07:05:39;;;;;;;25.07;6.90;;;;;;;;;;5027086;28;20269;-70
2022/01/18 07:08:04;;;;;;;7.97;6.33;;;;;;;;;;5028672;28;20680;-70
2022/01/18 07:10:31;;;;;;;12.70;6.47;;;;;;;;;;5030543;28;20279;-70
2022/01/18 07:12:57;;;;;;;18.53;6.90;;;;;;;;;;5027783;28;20529;-70
2022/01/18 07:15:22;;;;;;;16.67;6.97;;;;;;;;;;5011447;28;20185;-70
2022/01/18 07:17:47;;;;;;;24.57;8.43;;;;;;;;;;5028575;28;20257;-70
2022/01/18 07:20:13;;;;;;;20.77;6.63;;;;;;;;;;5028832;28;20194;-70
2022/01/18 07:22:42;;;;;;;9.77;5.97;;;;;;;;;;5028535;28;20648;-70
2022/01/18 07:25:11;;;;;;;8.47;4.83;;;;;;;;;;5010180;28;20683;-69
2022/01/18 07:27:36;;;;;;;13.40;6.17;;;;;;;;;;5028009;28;20171;-70
2022/01/18 07:30:01;;;;;;;8.03;5.30;;;;;;;;;;5033559;28;20670;-70
2022/01/18 07:32:27;;;;;;;12.07;5.67;;;;;;;;;;5032245;28;20725;-71
2022/01/18 07:34:53;;;;;;;7.63;4.33;;;;;;;;;;5032198;28;20212;-70
2022/01/18 07:37:19;;;;;;;9.77;5.00;;;;;;;;;;5032275;28;20194;-71
2022/01/18 07:39:44;;;;;;;5.37;3.80;;;;;;;;;;5033628;28;20232;-71
2022/01/18 07:42:09;;;;;;;5.77;3.53;;;;;;;;;;5013023;28;20702;-71
2022/01/18 07:44:35;;;;;;;8.10;3.90;;;;;;;;;;5031700;28;20580;-71
2022/01/18 07:47:00;;;;;;;6.57;4.67;;;;;;;;;;5031748;28;20551;-70
2022/01/18 07:49:25;;;;;;;8.97;5.27;;;;;;;;;;5032858;28;20213;-70
2022/01/18 07:51:50;;;;;;;6.13;4.00;;;;;;;;;;5031712;28;20284;-70
2022/01/18 07:54:16;;;;;;;10.10;3.53;;;;;;;;;;5031850;28;20673;-70
2022/01/18 07:56:41;;;;;;;6.77;4.30;;;;;;;;;;5014109;28;20225;-71
2022/01/18 07:59:07;;;;;;;6.87;4.00;;;;;;;;;;5032642;28;20232;-70
2022/01/18 08:01:32;;;;;;;11.73;4.53;;;;;;;;;;5030560;28;20205;-70
2022/01/18 08:03:57;;;;;;;12.23;4.20;;;;;;;;;;5032499;28;20265;-71
2022/01/18 08:06:23;;;;;;;6.43;3.80;;;;;;;;;;5030998;28;20182;-70
2022/01/18 08:08:48;;;;;;;11.23;4.47;;;;;;;;;;5031128;28;20316;-70
2022/01/18 08:11:13;;;;;;;5.97;4.10;;;;;;;;;;5032197;28;20213;-70
2022/01/18 08:13:40;;;;;;;9.57;4.37;;;;;;;;;;5031878;28;20178;-70
2022/01/18 08:16:23;;;;;;;6.70;3.80;;;;;;;;;;5026863;28;20656;-71
2022/01/18 08:18:52;;;;;;;13.33;5.43;;;;;;;;;;5030575;28;20267;-70
2022/01/18 08:21:18;;;;;;;13.37;5.67;;;;;;;;;;5031104;28;20297;-71
2022/01/18 08:23:43;;;;;;;9.87;5.30;;;;;;;;;;5031049;28;20289;-71
2022/01/18 08:26:08;;;;;;;15.03;6.07;;;;;;;;;;5030211;28;20660;-71
2022/01/18 08:28:33;;;;;;;20.27;6.77;;;;;;;;;;5032913;28;20188;-71
2022/01/18 08:30:58;;;;;;;13.73;5.83;;;;;;;;;;5026445;28;20194;-70
2022/01/18 08:33:24;;;;;;;12.07;5.37;;;;;;;;;;5010703;28;20201;-70
2022/01/18 08:35:50;;;;;;;19.77;6.53;;;;;;;;;;5027469;28;20542;-70
2022/01/18 08:38:15;;;;;;;16.13;6.13;;;;;;;;;;5012112;28;20189;-70
2022/01/18 08:40:40;;;;;;;14.07;6.53;;;;;;;;;;5026454;28;20233;-70
2022/01/18 08:43:05;;;;;;;10.87;5.77;;;;;;;;;;5030610;28;20637;-70
2022/01/18 08:45:30;;;;;;;17.77;6.27;;;;;;;;;;5027428;28;20562;-70
2022/01/18 08:47:56;;;;;;;7.53;4.80;;;;;;;;;;5023283;28;20195;-71
2022/01/18 08:50:21;;;;;;;5.77;4.43;;;;;;;;;;5027877;28;20206;-71
2022/01/18 08:52:50;;;;;;;25.00;6.07;;;;;;;;;;5030953;28;20210;-70
2022/01/18 08:55:16;;;;;;;8.27;4.33;;;;;;;;;;5009672;28;20537;-70
2022/01/18 08:57:41;;;;;;;5.90;3.53;;;;;;;;;;5029758;28;20177;-70
2022/01/18 09:00:08;;;;;;;5.43;3.63;;;;;;;;;;5031108;28;20288;-70
2022/01/18 09:02:33;;;;;;;10.43;3.83;;;;;;;;;;5008191;28;20182;-70
2022/01/18 09:04:59;;;;;;;5.57;3.80;;;;;;;;;;5031418;28;20555;-70
2022/01/18 09:07:24;;;;;;;13.50;4.07;;;;;;;;;;5028388;28;20178;-70
2022/01/18 09:09:54;;;;;;;10.27;4.20;;;;;;;;;;5030493;28;20166;-70
2022/01/18 09:12:20;;;;;;;13.77;3.50;;;;;;;;;;5011918;28;20185;-70
2022/01/18 09:14:45;;;;;;;8.50;2.90;;;;;;;;;;5029508;28;20175;-70
2022/01/18 09:17:10;;;;;;;14.60;3.70;;;;;;;;;;5030998;28;20206;-70
2022/01/18 09:19:36;;;;;;;7.17;3.00;;;;;;;;;;5025778;28;20648;-71
2022/01/18 09:22:03;;;;;;;6.43;3.00;;;;;;;;;;5028897;28;20302;-70
2022/01/18 09:24:28;;;;;;;9.50;3.23;;;;;;;;;;5026938;28;20618;-70
2022/01/18 09:26:53;;;;;;;10.43;3.67;;;;;;;;;;5030791;28;20273;-71
2022/01/18 09:29:19;;;;;;;13.43;3.77;;;;;;;;;;5012162;28;20175;-70
2022/01/18 09:31:44;;;;;;;15.37;3.97;;;;;;;;;;5008154;28;20352;-71
2022/01/18 09:34:09;;;;;;;12.93;3.83;;;;;;;;;;5009869;28;20312;-70
2022/01/18 09:36:35;;;;;;;12.67;3.80;;;;;;;;;;5012849;28;20233;-71
2022/01/18 09:39:00;;;;;;;12.60;4.70;;;;;;;;;;5029803;28;20175;-71
2022/01/18 09:41:30;;;;;;;12.53;4.70;;;;;;;;;;5027898;28;20289;-70
2022/01/18 09:43:56;;;;;;;29.57;5.77;;;;;;;;;;5028880;28;20251;-71
2022/01/18 09:46:25;;;;;;;22.87;5.90;;;;;;;;;;5029857;28;20193;-71
2022/01/18 09:48:53;;;;;;;49.83;7.33;;;;;;;;;;5030992;28;20231;-71
2022/01/18 09:51:18;;;;;;;50.97;6.87;;;;;;;;;;5025850;28;20567;-70
2022/01/18 09:53:43;;;;;;;21.40;6.13;;;;;;;;;;5012348;28;20185;-71
2022/01/18 09:56:09;;;;;;;37.63;6.63;;;;;;;;;;5029713;28;20738;-70
2022/01/18 09:58:34;;;;;;;38.40;8.30;;;;;;;;;;5028713;28;21197;-71
2022/01/18 10:00:59;;;;;;;47.50;7.30;;;;;;;;;;5031095;28;20216;-71
2022/01/18 10:03:27;;;;;;;86.73;9.53;;;;;;;;;;5028816;28;20201;-70
2022/01/18 10:05:52;;;;;;;63.70;8.40;;;;;;;;;;5028171;28;20175;-70
2022/01/18 10:08:18;;;;;;;41.80;6.90;;;;;;;;;;5026847;28;20615;-71
2022/01/18 10:10:44;;;;;;;61.03;8.20;;;;;;;;;;5011882;28;20194;-71
2022/01/18 10:13:18;;;;;;;34.27;6.27;;;;;;;;;;5024706;28;20186;-71
2022/01/18 10:16:02;;;;;;;31.03;5.93;;;;;;;;;;5026215;28;20188;-71
2022/01/18 10:18:39;;;;;;;67.67;8.83;;;;;;;;;;5026330;28;20185;-71
2022/01/18 10:21:06;;;;;;;54.57;7.83;;;;;;;;;;5029456;28;20201;-71
2022/01/18 10:23:32;;;;;;;16.00;5.67;;;;;;;;;;5028031;28;20276;-71
2022/01/18 10:25:58;;;;;;;50.10;7.17;;;;;;;;;;5012552;28;20544;-71
2022/01/18 10:28:33;;;;;;;78.47;8.93;;;;;;;;;;5028928;28;20710;-71
2022/01/18 10:31:03;;;;;;;35.10;6.23;;;;;;;;;;5029171;28;20197;-71
2022/01/18 10:33:35;;;;;;;16.13;5.37;;;;;;;;;;5010498;28;20181;-70
2022/01/18 10:36:04;;;;;;;44.17;8.00;;;;;;;;;;5030372;28;20248;-70
2022/01/18 10:38:29;;;;;;;35.90;6.87;;;;;;;;;;5006093;28;20191;-72
2022/01/18 10:40:55;;;;;;;55.10;8.73;;;;;;;;;;5026294;28;20208;-71
2022/01/18 10:43:27;;;;;;;22.57;6.50;;;;;;;;;;5028245;28;20193;-71
2022/01/18 10:46:09;;;;;;;21.80;6.57;;;;;;;;;;5011762;28;20611;-70
2022/01/18 10:48:44;;;;;;;59.53;8.77;;;;;;;;;;5028710;28;20186;-71
2022/01/18 10:51:24;;;;;;;26.43;7.63;;;;;;;;;;5011701;28;20344;-71
2022/01/18 10:53:59;;;;;;;84.23;12.00;;;;;;;;;;5025915;28;20275;-72
2022/01/18 10:56:24;;;;;;;50.10;10.33;;;;;;;;;;5019797;28;20214;-71
2022/01/18 10:58:55;;;;;;;25.30;9.03;;;;;;;;;;4999200;28;20738;-71
2022/01/18 11:01:21;;;;;;;30.10;10.07;;;;;;;;;;5025334;28;20687;-71
2022/01/18 11:04:05;;;;;;;30.90;12.33;;;;;;;;;;5027612;28;20198;-71
2022/01/18 11:06:30;;;;;;;48.10;11.93;;;;;;;;;;5032593;28;20185;-71
2022/01/18 11:09:05;;;;;;;39.77;12.77;;;;;;;;;;5033423;28;20182;-71
2022/01/18 11:11:31;;;;;;;34.73;13.10;;;;;;;;;;5032889;28;20205;-71
2022/01/18 11:14:01;;;;;;;41.07;12.90;;;;;;;;;;5030923;28;20186;-71
2022/01/18 11:16:27;;;;;;;44.17;13.27;;;;;;;;;;5032260;28;20288;-71
2022/01/18 11:18:54;;;;;;;44.13;15.90;;;;;;;;;;5028356;28;20185;-70
2022/01/18 11:21:22;;;;;;;52.50;17.13;;;;;;;;;;5029654;28;20198;-71
2022/01/18 11:23:47;;;;;;;52.27;17.23;;;;;;;;;;5030482;28;20194;-71
2022/01/18 11:26:13;;;;;;;39.97;17.13;;;;;;;;;;5032560;28;20171;-71
2022/01/18 11:28:38;;;;;;;65.00;17.37;;;;;;;;;;5030674;28;20166;-70
2022/01/18 11:31:10;;;;;;;47.60;17.40;;;;;;;;;;5033270;28;20197;-70
2022/01/18 11:33:37;;;;;;;35.33;16.33;;;;;;;;;;5014381;28;20178;-70
2022/01/18 11:36:04;;;;;;;45.30;15.90;;;;;;;;;;5031935;28;20186;-71
2022/01/18 11:38:48;;;;;;;30.20;15.03;;;;;;;;;;5029228;28;20186;-70
2022/01/18 11:41:23;;;;;;;33.33;15.80;;;;;;;;;;5012742;28;20210;-71
2022/01/18 11:43:51;;;;;;;43.47;16.10;;;;;;;;;;5018236;28;20815;-71
2022/01/18 11:46:30;;;;;;;33.13;15.57;;;;;;;;;;5030660;28;20194;-70
2022/01/18 11:49:06;;;;;;;38.40;14.47;;;;;;;;;;5028548;28;20174;-71
2022/01/18 11:51:39;;;;;;;49.63;17.27;;;;;;;;;;5028480;28;20710;-71
2022/01/18 11:54:26;;;;;;;42.97;15.60;;;;;;;;;;5014646;28;20271;-71
2022/01/18 11:56:52;;;;;;;41.70;17.43;;;;;;;;;;5028784;28;20273;-71
2022/01/18 11:59:19;;;;;;;45.97;18.17;;;;;;;;;;5031931;28;20265;-71
2022/01/18 12:01:45;;;;;;;39.60;17.47;;;;;;;;;;5032001;28;20209;-70
2022/01/18 12:04:10;;;;;;;43.23;18.83;;;;;;;;;;5034039;28;20336;-69
2022/01/18 12:06:45;;;;;;;68.03;20.00;;;;;;;;;;5031967;28;20731;-72
2022/01/18 12:09:29;;;;;;;43.37;17.33;;;;;;;;;;5031505;28;20182;-71
2022/01/18 12:11:56;;;;;;;41.83;17.27;;;;;;;;;;5027133;28;20221;-70
2022/01/18 12:14:31;;;;;;;38.47;19.13;;;;;;;;;;5027173;28;20182;-70
2022/01/18 12:17:11;;;;;;;42.17;20.73;;;;;;;;;;5027583;28;20570;-69
2022/01/18 12:19:44;;;;;;;47.90;18.27;;;;;;;;;;5026591;28;20261;-71
2022/01/18 12:22:10;;;;;;;38.10;17.03;;;;;;;;;;5031710;28;20555;-72
2022/01/18 12:24:35;;;;;;;42.70;19.37;;;;;;;;;;5031002;28;20186;-69
2022/01/18 12:27:20;;;;;;;37.40;17.73;;;;;;;;;;5028605;28;20184;-69
2022/01/18 12:30:14;;;;;;;33.13;16.17;;;;;;;;;;5029665;28;20256;-69
2022/01/18 12:32:56;;;;;;;34.70;17.40;;;;;;;;;;5029528;28;20203;-71
2022/01/18 12:35:23;;;;;;;40.40;17.77;;;;;;;;;;5031939;28;20328;-69
2022/01/18 12:37:48;;;;;;;29.90;15.53;;;;;;;;;;5030506;28;20655;-73
2022/01/18 12:40:24;;;;;;;35.60;15.50;;;;;;;;;;5024467;28;20212;-71
2022/01/18 12:45:33;;;;;;;25.40;14.00;;;;;;;;;;5028227;28;20255;-72
2022/01/18 12:48:09;;;;;;;36.73;15.70;;;;;;;;;;5031099;28;20175;-71
2022/01/18 12:50:39;;;;;;;38.37;15.73;;;;;;;;;;5022464;22;20791;-69
2022/01/18 12:53:09;;;;;;;40.07;16.37;;;;;;;;;;5011252;28;20217;-69
2022/01/18 12:55:43;;;;;;;34.27;14.83;;;;;;;;;;5008798;28;20183;-70
2022/01/18 12:58:10;;;;;;;38.13;15.30;;;;;;;;;;5011169;28;20186;-69
2022/01/18 13:00:43;;;;;;;32.77;15.67;;;;;;;;;;5010259;28;20183;-69
2022/01/18 13:03:08;;;;;;;29.17;16.67;;;;;;;;;;4991637;28;20253;-69
2022/01/18 13:05:33;;;;;;;36.27;16.67;;;;;;;;;;4990988;28;20184;-70
2022/01/18 13:08:00;;;;;;;40.93;16.83;;;;;;;;;;4992472;28;20184;-69
2022/01/18 13:10:44;;;;;;;41.77;16.53;;;;;;;;;;4991645;28;20271;-69
2022/01/18 13:13:12;;;;;;;39.87;16.33;;;;;;;;;;4994052;28;20187;-69
2022/01/18 13:26:44;;;;;;;44.37;18.60;;;;;;;;;;4993098;28;21664;-70
2022/01/18 13:29:14;;;;;;;38.33;16.43;;;;;;;;;;4989575;28;20180;-70
2022/01/18 13:31:43;;;;;;;33.77;16.13;;;;;;;;;;4989588;28;20196;-69
2022/01/18 13:34:13;;;;;;;41.77;17.27;;;;;;;;;;4990661;28;20626;-70
2022/01/18 13:36:52;;;;;;;34.80;16.13;;;;;;;;;;4990450;28;20215;-69
2022/01/18 13:39:28;;;;;;;40.90;15.90;;;;;;;;;;4989493;28;20218;-69
2022/01/18 13:41:53;;;;;;;36.60;16.43;;;;;;;;;;5001863;28;20200;-68
2022/01/18 13:44:18;;;;;;;40.00;15.33;;;;;;;;;;4993800;28;20294;-70
2022/01/18 13:46:44;;;;;;;32.23;13.93;;;;;;;;;;4994369;28;20214;-69
2022/01/18 13:49:13;;;;;;;30.60;14.90;;;;;;;;;;4986089;28;20171;-69
2022/01/18 13:51:38;;;;;;;48.57;14.77;;;;;;;;;;4992500;28;20215;-71
2022/01/18 13:54:06;;;;;;;31.33;13.90;;;;;;;;;;4990756;28;20201;-69
2022/01/18 13:56:32;;;;;;;40.70;15.77;;;;;;;;;;4990393;28;20262;-70
2022/01/18 13:59:02;;;;;;;40.73;16.20;;;;;;;;;;4991681;28;20251;-70
2022/01/18 14:01:32;;;;;;;35.53;15.13;;;;;;;;;;4987644;28;20206;-69
2022/01/18 14:04:00;;;;;;;33.63;15.30;;;;;;;;;;4981813;28;20685;-70
2022/01/18 14:06:34;;;;;;;29.03;14.67;;;;;;;;;;4989235;28;20300;-69
2022/01/18 14:08:59;;;;;;;41.30;16.17;;;;;;;;;;4986350;28;20222;-70
2022/01/18 14:11:25;;;;;;;25.07;14.13;;;;;;;;;;4989999;28;20665;-69
2022/01/18 14:13:52;;;;;;;24.90;12.53;;;;;;;;;;4989870;28;20251;-69
2022/01/18 14:16:19;;;;;;;35.00;13.27;;;;;;;;;;4985832;28;20223;-69
2022/01/18 14:18:51;;;;;;;34.50;14.17;;;;;;;;;;4990025;28;20622;-70
2022/01/18 14:21:30;;;;;;;29.27;12.67;;;;;;;;;;4988180;28;22278;-70
2022/01/18 14:24:24;;;;;;;33.17;12.97;;;;;;;;;;4989950;28;20214;-69
2022/01/18 14:26:53;;;;;;;37.93;15.03;;;;;;;;;;4976386;28;20606;-69
2022/01/18 14:29:19;;;;;;;38.77;15.37;;;;;;;;;;4989221;28;20180;-69
2022/01/18 14:31:58;;;;;;;35.37;14.07;;;;;;;;;;4988672;28;20389;-69
2022/01/18 14:34:46;;;;;;;28.10;15.67;;;;;;;;;;4990985;28;20565;-70
2022/01/18 14:37:12;;;;;;;34.60;15.50;;;;;;;;;;4980098;28;20188;-70
2022/01/18 14:40:10;;;;;;;37.37;14.30;;;;;;;;;;4986329;28;20584;-70
2022/01/18 14:42:54;;;;;;;29.80;14.90;;;;;;;;;;4956962;28;20621;-69
2022/01/18 14:47:50;;;;;;;42.00;17.37;;;;;;;;;;4989207;28;20222;-69
2022/01/18 14:50:17;;;;;;;36.63;17.53;;;;;;;;;;4977314;28;20233;-69
2022/01/18 14:52:44;;;;;;;36.73;15.93;;;;;;;;;;4989542;28;20293;-69
2022/01/18 14:55:09;;;;;;;30.30;16.77;;;;;;;;;;4986837;28;20194;-70
2022/01/18 14:57:35;;;;;;;35.33;16.87;;;;;;;;;;4993367;28;20179;-69
2022/01/18 15:00:02;;;;;;;39.60;17.90;;;;;;;;;;4989416;28;20283;-69
2022/01/18 15:02:30;;;;;;;44.40;20.90;;;;;;;;;;4986887;28;20205;-70
2022/01/18 15:04:55;;;;;;;40.43;19.77;;;;;;;;;;4985616;28;20215;-69
2022/01/18 15:07:20;;;;;;;46.03;20.53;;;;;;;;;;4987791;28;20184;-70
2022/01/18 15:09:45;;;;;;;37.37;20.07;;;;;;;;;;4989403;28;20605;-69
2022/01/18 15:12:10;;;;;;;37.80;18.00;;;;;;;;;;4989275;28;20202;-70
2022/01/18 15:14:36;;;;;;;37.40;18.27;;;;;;;;;;4989027;28;20608;-69
2022/01/18 15:17:01;;;;;;;40.30;18.70;;;;;;;;;;4989959;28;20688;-70
2022/01/18 15:19:27;;;;;;;41.13;20.03;;;;;;;;;;4987840;28;20717;-69
2022/01/18 15:21:52;;;;;;;38.00;18.60;;;;;;;;;;4988834;28;20191;-70
2022/01/18 15:24:18;;;;;;;35.47;20.27;;;;;;;;;;4982682;28;20254;-69
2022/01/18 15:26:43;;;;;;;39.77;19.00;;;;;;;;;;4986894;28;20259;-69
2022/01/18 15:29:08;;;;;;;40.33;19.73;;;;;;;;;;4989913;28;20183;-69
2022/01/18 15:31:34;;;;;;;37.43;17.70;;;;;;;;;;4987289;28;20207;-69
2022/01/18 15:33:59;;;;;;;41.20;19.97;;;;;;;;;;4987940;28;20187;-69
2022/01/18 15:36:24;;;;;;;44.53;20.43;;;;;;;;;;4987422;28;20183;-69
2022/01/18 15:38:50;;;;;;;48.83;21.67;;;;;;;;;;4985462;28;20245;-69
2022/01/18 15:41:15;;;;;;;47.40;19.80;;;;;;;;;;4986972;28;20204;-70
2022/01/18 15:43:41;;;;;;;48.33;21.27;;;;;;;;;;4987732;28;20673;-70
2022/01/18 15:46:06;;;;;;;39.57;19.57;;;;;;;;;;4987922;28;20184;-69
2022/01/18 15:48:32;;;;;;;50.43;18.73;;;;;;;;;;4974729;28;20180;-69
2022/01/18 15:50:57;;;;;;;37.10;19.50;;;;;;;;;;4990834;28;20218;-69
2022/01/18 15:53:22;;;;;;;45.10;20.37;;;;;;;;;;4992785;28;20187;-69
2022/01/18 15:55:48;;;;;;;44.53;19.90;;;;;;;;;;4991484;28;20172;-70